Warrior, Alabama
Current Conditions -  °F | °C
As of 9:53 PM on Monday 22 Dec 2014 (Local Time) from KBHM Reporting Station
Overcast Overcast  
Wind Chill: 54°   Ceiling: 700
Heat Index: 54°   Visibility: 10mi
Dew Point: 51°   Wind: 5mph
Humidity: 90%   Direction: NA
Pressure: 29.82"   Gusts: NA
Location:  33.81°N, 86.81°W
Report Text: KBHM 230353Z VRB04KT 10SM OVC007 12/11 A2982 RMK AO2 SLP095 T01220106
Loading
Personal Weather Stations






























Interactive Weather Map New forecast layout! Learn more

10-Day Weather Forecast

Advertisements
Track Severe Weather on mobile